Afton, OK

5:18 AM CDT on September 20, 2014 (GMT -0500)
Grove Municipal | Change Station
CLOSE
Current Station
Airport
Location: Grove,
Elevation: 833 ft
Nearby Weather Stations

Elev 833 ft 36.60 °N, 94.74 °W | Updated 23 minutes ago

Fog
Fog
64 °F
Feels Like 64 °F
N
0
Wind Variable Wind from North

Today
High -- | Low -- °F
--% Chance of Precip.
Yesterday
High -- | Low -- °F
Precip. -- in
7:05 AM 7:19 PM
Waning Crescent, 13% visible
Pressure 30.00 in
Visibility 2.5 miles
Clouds Clear
Dew Point 64 °F
Humidity 100%
Rainfall 0.00 in
Snow Depth Not available.
UV 0 out of 12
Pollen 9.70 out of 12
Air Quality Not available.
Flu Activity Not available.
METAR KGMJ 200955Z AUTO 00000KT 2 1/2SM BR CLR 18/18 A3000 RMK AO2

More Conditions Fewer Conditions

Pressure 30.00 in
Visibility 2.5 miles
Clouds Clear
Dew Point 64 °F
Humidity 100%
Rainfall 0.00 in
Snow Depth Not available.
UV 0 out of 12
Pollen 9.70 out of 12
Air Quality Not available.
Flu Activity Not available.
METAR KGMJ 200955Z AUTO 00000KT 2 1/2SM BR CLR 18/18 A3000 RMK AO2

More Conditions Fewer Conditions

10-Day Weather Forecast

Almanac

Astronomy

Sep. 20, 2014 Rise Set
Actual Time 7:05 AM CDT 7:19 PM CDT
Civil Twilight 6:39 AM CDT 7:45 PM CDT
Nautical Twilight 6:09 AM CDT 8:15 PM CDT
Astronomical Twilight 5:39 AM CDT 8:45 PM CDT
Moon 3:50 AM CDT 5:19 PM CDT
Length of Visible Light 13h 05m
Length of Day
12h 13m
Tomorrow will be 2m 20s shorter.
Waning Crescent, 13% of the Moon is Illuminated
Today
Waning Crescent
Sep 24
New
Oct 1
First Quarter
Oct 8
Full
Oct 15
Last Quarter

Today's Extremes

State Highs State Lows

Community

WunderPhotos

Upload Photos

1,754,824 photos uploaded!

WunderBlogs® & News

Nearby

Snow Depth

Station Depth Elevation
No new snow has been reported.

Earthquake Activity

City Distance Mag. Time & Date
Yale, Oklahoma 113 miles 3.3 7:02 AM CDT
2014-09-17
Yale, Oklahoma 112 miles 3.0 6:58 AM CDT
2014-09-17
Minimum magnitude displayed is 2.5.

Coastal Water Temperatures

Place Temperature
No Stations Reporting

Nearby Weather Stations